createdAt,value
2019-05-26T00:00:29.585Z,974.98
2019-05-26T00:01:29.584Z,974.95
2019-05-26T00:02:29.581Z,974.93
2019-05-26T00:03:29.612Z,974.91
2019-05-26T00:04:29.580Z,974.88
2019-05-26T00:05:29.578Z,974.92
2019-05-26T00:06:29.579Z,974.89
2019-05-26T00:07:30.920Z,974.92
2019-05-26T00:08:29.596Z,974.92
2019-05-26T00:09:29.573Z,974.91
2019-05-26T00:10:29.567Z,974.94
2019-05-26T00:11:29.563Z,974.95
2019-05-26T00:12:29.565Z,974.94
2019-05-26T00:13:29.590Z,974.91
2019-05-26T00:14:29.560Z,974.87
2019-05-26T00:15:29.562Z,974.88
2019-05-26T00:16:29.552Z,974.86
2019-05-26T00:17:29.550Z,974.84
2019-05-26T00:18:33.114Z,974.84
2019-05-26T00:19:29.546Z,974.87
2019-05-26T00:20:29.541Z,974.87
2019-05-26T00:21:29.550Z,974.91
2019-05-26T00:22:29.541Z,974.88
2019-05-26T00:23:29.592Z,974.88
2019-05-26T00:24:29.534Z,974.82
2019-05-26T00:25:29.530Z,974.81
2019-05-26T00:26:29.536Z,974.78
2019-05-26T00:27:29.530Z,974.79
2019-05-26T00:28:29.554Z,974.82
2019-05-26T00:29:29.529Z,974.80
2019-05-26T00:30:29.540Z,974.78
2019-05-26T00:31:29.515Z,974.73
2019-05-26T00:32:29.520Z,974.76
2019-05-26T00:33:29.553Z,974.75
2019-05-26T00:34:29.511Z,974.75
2019-05-26T00:35:29.514Z,974.77
2019-05-26T00:36:29.511Z,974.77
2019-05-26T00:37:29.511Z,974.76
2019-05-26T00:38:29.537Z,974.77
2019-05-26T00:39:29.498Z,974.76
2019-05-26T00:40:29.503Z,974.80
2019-05-26T00:41:29.499Z,974.81
2019-05-26T00:42:29.494Z,974.84
2019-05-26T00:43:29.492Z,974.83
2019-05-26T00:44:29.521Z,974.87
2019-05-26T00:45:29.485Z,974.91
2019-05-26T00:46:29.483Z,974.91
2019-05-26T00:47:29.484Z,974.91
2019-05-26T00:48:29.476Z,974.94
2019-05-26T00:49:29.507Z,974.91
2019-05-26T00:50:29.476Z,974.88
2019-05-26T00:51:29.471Z,974.89
2019-05-26T00:52:29.469Z,974.88
2019-05-26T00:53:29.523Z,974.84
2019-05-26T00:54:29.500Z,974.83
2019-05-26T00:55:29.474Z,974.86
2019-05-26T00:56:29.470Z,974.87
2019-05-26T00:57:29.458Z,974.88
2019-05-26T00:58:29.462Z,974.86
2019-05-26T00:59:29.481Z,974.80
2019-05-26T01:00:29.452Z,974.83
2019-05-26T01:01:29.446Z,974.82
2019-05-26T01:02:29.446Z,974.77
2019-05-26T01:03:29.448Z,974.79
2019-05-26T01:04:29.469Z,974.77
2019-05-26T01:05:29.439Z,974.79
2019-05-26T01:06:29.439Z,974.78
2019-05-26T01:07:29.441Z,974.74
2019-05-26T01:08:29.428Z,974.73
2019-05-26T01:09:29.456Z,974.72
2019-05-26T01:10:29.427Z,974.70
2019-05-26T01:11:29.430Z,974.69
2019-05-26T01:12:29.424Z,974.74
2019-05-26T01:13:29.416Z,974.70
2019-05-26T01:14:29.440Z,974.70
2019-05-26T01:15:29.417Z,974.73
2019-05-26T01:16:29.415Z,974.73
2019-05-26T01:17:29.405Z,974.71
2019-05-26T01:18:29.417Z,974.69
2019-05-26T01:19:29.433Z,974.64
2019-05-26T01:20:29.402Z,974.68
2019-05-26T01:21:29.414Z,974.70
2019-05-26T01:22:29.399Z,974.71
2019-05-26T01:23:29.454Z,974.71
2019-05-26T01:24:29.495Z,974.67
2019-05-26T01:25:29.387Z,974.63
2019-05-26T01:26:29.390Z,974.64
2019-05-26T01:27:29.382Z,974.60
2019-05-26T01:28:29.385Z,974.58
2019-05-26T01:29:29.417Z,974.53
2019-05-26T01:30:29.375Z,974.50
2019-05-26T01:31:29.396Z,974.53
2019-05-26T01:32:29.372Z,974.50
2019-05-26T01:33:29.372Z,974.45
2019-05-26T01:34:29.428Z,974.44
2019-05-26T01:35:29.370Z,974.40
2019-05-26T01:36:29.355Z,974.42
2019-05-26T01:37:29.361Z,974.42
2019-05-26T01:38:29.359Z,974.39
2019-05-26T01:39:29.383Z,974.38
2019-05-26T01:40:29.351Z,974.37
2019-05-26T01:41:29.347Z,974.37
2019-05-26T01:42:29.342Z,974.34
2019-05-26T01:43:29.345Z,974.37
2019-05-26T01:44:29.368Z,974.34
2019-05-26T01:45:29.336Z,974.37
2019-05-26T01:46:29.339Z,974.38
2019-05-26T01:47:29.326Z,974.39
2019-05-26T01:48:29.328Z,974.38
2019-05-26T01:49:29.353Z,974.38
2019-05-26T01:50:29.324Z,974.35
2019-05-26T01:51:29.319Z,974.33
2019-05-26T01:52:29.321Z,974.32
2019-05-26T01:53:29.314Z,974.30
2019-05-26T01:54:29.345Z,974.27
2019-05-26T01:55:29.309Z,974.22
2019-05-26T01:56:29.306Z,974.20
2019-05-26T01:57:29.312Z,974.21
2019-05-26T01:58:29.313Z,974.15
2019-05-26T01:59:29.329Z,974.12
2019-05-26T02:00:29.298Z,974.08
2019-05-26T02:01:29.293Z,974.11
2019-05-26T02:02:29.291Z,974.07
2019-05-26T02:03:29.286Z,974.04
2019-05-26T02:04:29.315Z,974.04
2019-05-26T02:05:29.279Z,974.01
2019-05-26T02:06:29.307Z,974.00
2019-05-26T02:07:29.275Z,973.98
2019-05-26T02:08:38.771Z,973.99
2019-05-26T02:09:29.272Z,973.96
2019-05-26T02:10:29.292Z,973.92
2019-05-26T02:11:29.265Z,973.91
2019-05-26T02:12:29.262Z,973.88
2019-05-26T02:13:29.259Z,973.88
2019-05-26T02:14:29.257Z,973.92
2019-05-26T02:15:29.279Z,973.89
2019-05-26T02:16:29.246Z,973.89
2019-05-26T02:17:29.244Z,973.87
2019-05-26T02:18:29.240Z,973.87
2019-05-26T02:19:29.237Z,973.84
2019-05-26T02:20:29.270Z,973.80
2019-05-26T02:21:29.238Z,973.77
2019-05-26T02:22:29.228Z,973.78
2019-05-26T02:23:29.230Z,973.79
2019-05-26T02:24:29.228Z,973.71
2019-05-26T02:25:29.247Z,973.68
2019-05-26T02:26:29.220Z,973.61
2019-05-26T02:27:29.213Z,973.64
2019-05-26T02:28:29.207Z,973.61
2019-05-26T02:29:29.214Z,973.60
2019-05-26T02:30:29.236Z,973.61
2019-05-26T02:31:29.200Z,973.63
2019-05-26T02:32:29.206Z,973.60
2019-05-26T02:33:29.196Z,973.59
2019-05-26T02:34:29.193Z,973.63
2019-05-26T02:35:29.219Z,973.58
2019-05-26T02:36:29.184Z,973.61
2019-05-26T02:37:29.187Z,973.63
2019-05-26T02:38:29.181Z,973.64
2019-05-26T02:39:29.183Z,973.63
2019-05-26T02:40:29.205Z,973.62
2019-05-26T02:41:29.166Z,973.61
2019-05-26T02:42:29.168Z,973.60
2019-05-26T02:43:29.168Z,973.58
2019-05-26T02:44:29.223Z,973.59
2019-05-26T02:45:29.193Z,973.60
2019-05-26T02:46:29.157Z,973.59
2019-05-26T02:47:29.152Z,973.55
2019-05-26T02:48:29.152Z,973.55
2019-05-26T02:49:29.147Z,973.53
2019-05-26T02:50:29.169Z,973.57
2019-05-26T02:51:29.133Z,973.55
2019-05-26T02:52:29.133Z,973.54
2019-05-26T02:53:29.134Z,973.56
2019-05-26T02:54:29.131Z,973.57
2019-05-26T02:55:29.153Z,973.56
2019-05-26T02:56:29.123Z,973.58
2019-05-26T02:57:29.116Z,973.60
2019-05-26T02:58:29.122Z,973.61
2019-05-26T02:59:29.119Z,973.59
2019-05-26T03:00:29.134Z,973.59
2019-05-26T03:01:29.115Z,973.62
2019-05-26T03:02:29.107Z,973.59
2019-05-26T03:03:29.103Z,973.61
2019-05-26T03:04:29.096Z,973.60
2019-05-26T03:05:29.115Z,973.60
2019-05-26T03:06:29.096Z,973.61
2019-05-26T03:07:29.082Z,973.63
2019-05-26T03:08:29.091Z,973.63
2019-05-26T03:09:29.093Z,973.67
2019-05-26T03:10:29.120Z,973.67
2019-05-26T03:11:29.077Z,973.66
2019-05-26T03:12:29.073Z,973.65
2019-05-26T03:13:29.071Z,973.64
2019-05-26T03:14:29.057Z,973.63
2019-05-26T03:15:29.093Z,973.64
2019-05-26T03:16:29.057Z,973.63
2019-05-26T03:17:29.059Z,973.58
2019-05-26T03:18:29.050Z,973.54
2019-05-26T03:19:29.044Z,973.53
2019-05-26T03:20:29.042Z,973.49
2019-05-26T03:21:29.070Z,973.52
2019-05-26T03:22:29.043Z,973.52
2019-05-26T03:23:29.029Z,973.52
2019-05-26T03:24:29.029Z,973.54
2019-05-26T03:25:29.026Z,973.54
2019-05-26T03:26:29.050Z,973.59
2019-05-26T03:27:29.018Z,973.58
2019-05-26T03:28:29.016Z,973.61
2019-05-26T03:29:29.018Z,973.67
2019-05-26T03:30:29.008Z,973.67
2019-05-26T03:31:29.047Z,973.68
2019-05-26T03:32:29.003Z,973.72
2019-05-26T03:33:29.005Z,973.74
2019-05-26T03:34:29.017Z,973.76
2019-05-26T03:35:29.075Z,973.75
2019-05-26T03:36:29.024Z,973.78
2019-05-26T03:37:29.002Z,973.79
2019-05-26T03:38:28.983Z,973.79
2019-05-26T03:39:43.610Z,973.81
2019-05-26T03:40:28.983Z,973.80
2019-05-26T03:41:28.996Z,973.83
2019-05-26T03:42:28.972Z,973.86
2019-05-26T03:43:28.964Z,973.84
2019-05-26T03:44:28.968Z,973.82
2019-05-26T03:45:28.965Z,973.78
2019-05-26T03:46:28.989Z,973.79
2019-05-26T03:47:28.957Z,973.77
2019-05-26T03:48:28.959Z,973.78
2019-05-26T03:49:28.944Z,973.78
2019-05-26T03:50:28.953Z,973.80
2019-05-26T03:51:28.973Z,973.81
2019-05-26T03:52:28.947Z,973.84
2019-05-26T03:53:28.941Z,973.84
2019-05-26T03:54:28.939Z,973.84
2019-05-26T03:55:28.930Z,973.85
2019-05-26T03:56:28.962Z,973.88
2019-05-26T03:57:28.928Z,973.86
2019-05-26T03:58:28.923Z,973.93
2019-05-26T03:59:28.918Z,973.96
2019-05-26T04:00:28.919Z,973.93
2019-05-26T04:01:28.939Z,973.96
2019-05-26T04:02:28.917Z,973.92
2019-05-26T04:03:28.913Z,973.92
2019-05-26T04:04:28.916Z,973.92
2019-05-26T04:05:28.908Z,973.94
2019-05-26T04:06:28.899Z,973.94
2019-05-26T04:07:28.936Z,973.95
2019-05-26T04:08:28.895Z,973.95
2019-05-26T04:09:28.900Z,973.97
2019-05-26T04:10:28.891Z,974.02
2019-05-26T04:11:28.890Z,973.99
2019-05-26T04:12:28.914Z,973.99
2019-05-26T04:13:28.883Z,973.99
2019-05-26T04:14:28.881Z,974.02
2019-05-26T04:15:28.884Z,973.98
2019-05-26T04:16:28.878Z,974.02
2019-05-26T04:17:28.901Z,974.07
2019-05-26T04:18:28.876Z,974.14
2019-05-26T04:19:28.867Z,974.17
2019-05-26T04:20:28.878Z,974.18
2019-05-26T04:21:28.879Z,974.21
2019-05-26T04:22:28.894Z,974.27
2019-05-26T04:23:28.875Z,974.23
2019-05-26T04:24:28.866Z,974.30
2019-05-26T04:25:28.859Z,974.26
2019-05-26T04:26:28.858Z,974.26
2019-05-26T04:27:28.888Z,974.27
2019-05-26T04:28:28.858Z,974.31
2019-05-26T04:29:28.854Z,974.39
2019-05-26T04:30:28.853Z,974.49
2019-05-26T04:31:28.867Z,974.59
2019-05-26T04:32:28.879Z,974.63
2019-05-26T04:33:28.844Z,974.43
2019-05-26T04:34:28.860Z,974.42
2019-05-26T04:35:28.847Z,974.33
2019-05-26T04:36:28.843Z,974.35
2019-05-26T04:37:28.875Z,974.28
2019-05-26T04:38:28.840Z,974.32
2019-05-26T04:39:28.843Z,974.43
2019-05-26T04:40:28.857Z,974.47
2019-05-26T04:41:28.846Z,974.46
2019-05-26T04:42:28.868Z,974.49
2019-05-26T04:43:29.794Z,974.54
2019-05-26T04:44:28.839Z,974.61
2019-05-26T04:45:28.839Z,974.65
2019-05-26T04:46:28.839Z,974.69
2019-05-26T04:47:28.861Z,974.76
2019-05-26T04:48:28.843Z,974.95
2019-05-26T04:49:28.847Z,975.04
2019-05-26T04:50:28.837Z,975.13
2019-05-26T04:51:28.835Z,975.21
2019-05-26T04:52:28.865Z,975.18
2019-05-26T04:53:28.840Z,975.24
2019-05-26T04:54:28.840Z,975.34
2019-05-26T04:55:28.846Z,975.40
2019-05-26T04:56:28.839Z,975.25
2019-05-26T04:57:28.865Z,975.53
2019-05-26T04:58:28.836Z,975.51
2019-05-26T04:59:28.844Z,975.59
2019-05-26T05:00:28.833Z,975.59
2019-05-26T05:01:29.813Z,975.47
2019-05-26T05:02:28.864Z,975.56
2019-05-26T05:03:28.837Z,975.52
2019-05-26T05:04:29.798Z,975.65
2019-05-26T05:05:28.843Z,975.63
2019-05-26T05:06:28.841Z,975.68
2019-05-26T05:07:28.982Z,975.69
2019-05-26T05:08:28.842Z,975.69
2019-05-26T05:09:28.846Z,975.65
2019-05-26T05:10:41.759Z,975.68
2019-05-26T05:11:28.846Z,975.64
2019-05-26T05:12:28.885Z,975.62
2019-05-26T05:13:28.859Z,975.66
2019-05-26T05:14:28.860Z,975.63
2019-05-26T05:15:28.853Z,975.63
2019-05-26T05:16:28.848Z,975.55
2019-05-26T05:17:28.879Z,975.53
2019-05-26T05:18:28.866Z,975.58
2019-05-26T05:19:28.852Z,975.56
2019-05-26T05:20:28.859Z,975.62
2019-05-26T05:21:28.852Z,975.62
2019-05-26T05:22:28.891Z,975.61
2019-05-26T05:23:29.805Z,975.59
2019-05-26T05:24:28.869Z,975.59
2019-05-26T05:25:28.896Z,975.58
2019-05-26T05:26:28.865Z,975.60
2019-05-26T05:27:28.931Z,975.58
2019-05-26T05:28:28.878Z,975.55
2019-05-26T05:29:28.875Z,975.58
2019-05-26T05:30:28.869Z,975.56
2019-05-26T05:31:28.892Z,975.58
2019-05-26T05:32:32.671Z,975.58
2019-05-26T05:33:28.908Z,975.64
2019-05-26T05:34:28.884Z,975.60
2019-05-26T05:35:28.890Z,975.55
2019-05-26T05:36:28.905Z,975.65
2019-05-26T05:37:28.885Z,975.64
2019-05-26T05:38:28.917Z,975.54
2019-05-26T05:39:28.891Z,975.60
2019-05-26T05:40:28.898Z,975.62
2019-05-26T05:41:28.897Z,975.59
2019-05-26T05:42:28.911Z,975.61
2019-05-26T05:43:28.938Z,975.58
2019-05-26T05:44:28.903Z,975.54
2019-05-26T05:45:28.926Z,975.61
2019-05-26T05:46:28.903Z,975.61
2019-05-26T05:47:28.906Z,975.48
2019-05-26T05:48:28.946Z,975.48
2019-05-26T05:49:28.908Z,975.48
2019-05-26T05:50:28.913Z,975.56
2019-05-26T05:51:28.912Z,975.52
2019-05-26T05:52:28.915Z,975.56
2019-05-26T05:53:28.962Z,975.56
2019-05-26T05:54:28.913Z,975.61
2019-05-26T05:55:28.923Z,975.60
2019-05-26T05:56:28.927Z,975.61
2019-05-26T05:57:28.947Z,975.62
2019-05-26T05:58:28.953Z,975.60
2019-05-26T05:59:28.944Z,975.63
2019-05-26T06:00:28.926Z,975.63
2019-05-26T06:01:28.930Z,975.61
2019-05-26T06:02:28.931Z,975.62
2019-05-26T06:03:28.969Z,975.62
2019-05-26T06:04:29.359Z,975.63
2019-05-26T06:05:28.944Z,975.63
2019-05-26T06:06:28.936Z,975.67
2019-05-26T06:07:28.943Z,975.64
2019-05-26T06:08:28.972Z,975.64
2019-05-26T06:09:28.942Z,975.67
2019-05-26T06:10:28.943Z,975.70
2019-05-26T06:11:28.948Z,975.70
2019-05-26T06:12:28.953Z,975.69
2019-05-26T06:13:28.976Z,975.71
2019-05-26T06:14:29.033Z,975.70
2019-05-26T06:15:28.953Z,975.72
2019-05-26T06:16:28.957Z,975.68
2019-05-26T06:17:28.967Z,975.72
2019-05-26T06:18:28.993Z,975.67
2019-05-26T06:19:28.973Z,975.66
2019-05-26T06:20:28.966Z,975.72
2019-05-26T06:21:28.968Z,975.69
2019-05-26T06:22:28.971Z,975.71
2019-05-26T06:23:29.016Z,975.70
2019-05-26T06:24:28.980Z,975.75
2019-05-26T06:25:28.989Z,975.70
2019-05-26T06:26:28.991Z,975.67
2019-05-26T06:27:28.983Z,975.76
2019-05-26T06:28:29.013Z,975.71
2019-05-26T06:29:28.993Z,975.74
2019-05-26T06:30:28.996Z,975.74
2019-05-26T06:31:28.998Z,975.75
2019-05-26T06:32:29.003Z,975.71
2019-05-26T06:33:29.030Z,975.73
2019-05-26T06:34:29.008Z,975.72
2019-05-26T06:35:32.460Z,975.79
2019-05-26T06:36:29.009Z,975.79
2019-05-26T06:37:29.013Z,975.80
2019-05-26T06:38:29.044Z,975.82
2019-05-26T06:39:29.026Z,975.78
2019-05-26T06:40:29.027Z,975.82
2019-05-26T06:41:33.475Z,975.80
2019-05-26T06:42:29.039Z,975.78
2019-05-26T06:43:29.069Z,975.77
2019-05-26T06:44:29.041Z,975.80
2019-05-26T06:45:29.049Z,975.73
2019-05-26T06:46:29.049Z,975.69
2019-05-26T06:47:29.057Z,975.76
2019-05-26T06:48:29.061Z,975.77
2019-05-26T06:49:29.121Z,975.77
2019-05-26T06:50:29.073Z,975.77
2019-05-26T06:51:29.083Z,975.77
2019-05-26T06:52:29.827Z,975.75
2019-05-26T06:53:29.075Z,975.76
2019-05-26T06:54:29.123Z,975.71
2019-05-26T06:55:29.084Z,975.74
2019-05-26T06:56:29.122Z,975.75
2019-05-26T06:57:29.129Z,975.75
2019-05-26T06:58:29.106Z,975.78
2019-05-26T06:59:29.132Z,975.77
2019-05-26T07:00:29.113Z,975.71
2019-05-26T07:01:29.121Z,975.78
2019-05-26T07:02:29.121Z,975.74
2019-05-26T07:03:29.127Z,975.73
2019-05-26T07:04:29.172Z,975.79
2019-05-26T07:05:29.904Z,975.77
2019-05-26T07:06:29.140Z,975.78
2019-05-26T07:07:29.152Z,975.80
2019-05-26T07:08:29.158Z,975.80
2019-05-26T07:09:29.185Z,975.82
2019-05-26T07:10:29.163Z,975.82
2019-05-26T07:11:29.173Z,975.83
2019-05-26T07:12:29.213Z,975.84
2019-05-26T07:13:29.180Z,975.85
2019-05-26T07:14:29.225Z,975.86
2019-05-26T07:15:29.190Z,975.86
2019-05-26T07:16:38.090Z,975.86
2019-05-26T07:17:29.202Z,975.85
2019-05-26T07:18:29.209Z,975.84
2019-05-26T07:19:29.244Z,975.83
2019-05-26T07:20:29.217Z,975.83
2019-05-26T07:21:29.271Z,975.85
2019-05-26T07:22:29.231Z,975.88
2019-05-26T07:23:29.248Z,975.82
2019-05-26T07:24:29.685Z,975.80
2019-05-26T07:25:29.251Z,975.79
2019-05-26T07:26:29.255Z,975.80
2019-05-26T07:27:29.259Z,975.73
2019-05-26T07:28:29.267Z,975.78
2019-05-26T07:29:29.304Z,975.76
2019-05-26T07:30:29.284Z,975.78
2019-05-26T07:31:29.298Z,975.80
2019-05-26T07:32:29.296Z,975.80
2019-05-26T07:33:29.300Z,975.75
2019-05-26T07:34:29.338Z,975.79
2019-05-26T07:35:29.313Z,975.80
2019-05-26T07:36:29.326Z,975.79
2019-05-26T07:37:29.332Z,975.79
2019-05-26T07:38:29.336Z,975.75
2019-05-26T07:39:29.370Z,975.76
2019-05-26T07:40:29.342Z,975.78
2019-05-26T07:41:29.357Z,975.76
2019-05-26T07:42:29.363Z,975.77
2019-05-26T07:43:29.364Z,975.78
2019-05-26T07:44:29.399Z,975.72
2019-05-26T07:45:29.378Z,975.74
2019-05-26T07:46:29.387Z,975.82
2019-05-26T07:47:29.386Z,975.81
2019-05-26T07:48:29.404Z,975.83
2019-05-26T07:49:29.430Z,975.79
2019-05-26T07:50:29.412Z,975.78
2019-05-26T07:51:29.425Z,975.81
2019-05-26T07:52:29.431Z,975.80
2019-05-26T07:53:29.431Z,975.81
2019-05-26T07:54:29.460Z,975.79
2019-05-26T07:55:29.447Z,975.82
2019-05-26T07:56:29.455Z,975.82
2019-05-26T07:57:29.459Z,975.80
2019-05-26T07:58:29.466Z,975.76
2019-05-26T07:59:29.496Z,975.75
2019-05-26T08:00:29.480Z,975.74
2019-05-26T08:01:35.686Z,975.77
2019-05-26T08:02:29.515Z,975.70
2019-05-26T08:03:29.503Z,975.73
2019-05-26T08:04:29.541Z,975.74
2019-05-26T08:05:29.517Z,975.69
2019-05-26T08:06:29.585Z,975.66
2019-05-26T08:07:29.530Z,975.65
2019-05-26T08:08:29.537Z,975.66
2019-05-26T08:09:29.574Z,975.65
2019-05-26T08:10:29.596Z,975.62
2019-05-26T08:11:29.564Z,975.63
2019-05-26T08:12:30.714Z,975.64
2019-05-26T08:13:29.577Z,975.62
2019-05-26T08:14:29.590Z,975.61
2019-05-26T08:15:29.626Z,975.62
2019-05-26T08:16:29.602Z,975.64
2019-05-26T08:17:29.617Z,975.68
2019-05-26T08:18:29.620Z,975.67
2019-05-26T08:19:29.639Z,975.69
2019-05-26T08:20:29.666Z,975.62
2019-05-26T08:21:29.647Z,975.62
2019-05-26T08:22:29.653Z,975.60
2019-05-26T08:23:29.658Z,975.63
2019-05-26T08:24:29.671Z,975.67
2019-05-26T08:25:29.705Z,975.62
2019-05-26T08:26:29.684Z,975.65
2019-05-26T08:27:29.691Z,975.62
2019-05-26T08:28:29.713Z,975.63
2019-05-26T08:29:29.720Z,975.61
2019-05-26T08:30:29.751Z,975.60
2019-05-26T08:31:29.736Z,975.59
2019-05-26T08:32:29.743Z,975.58
2019-05-26T08:33:29.750Z,975.54
2019-05-26T08:34:29.766Z,975.60
2019-05-26T08:35:29.793Z,975.60
2019-05-26T08:36:29.777Z,975.52
2019-05-26T08:37:29.791Z,975.52
2019-05-26T08:38:29.799Z,975.50
2019-05-26T08:39:29.810Z,975.48
2019-05-26T08:40:29.899Z,975.49
2019-05-26T08:41:29.827Z,975.45
2019-05-26T08:42:43.844Z,975.46
2019-05-26T08:43:30.360Z,975.39
2019-05-26T08:44:29.863Z,975.41
2019-05-26T08:45:29.902Z,975.39
2019-05-26T08:46:29.879Z,975.44
2019-05-26T08:47:29.887Z,975.39
2019-05-26T08:48:29.899Z,975.41
2019-05-26T08:49:29.909Z,975.42
2019-05-26T08:50:29.950Z,975.40
2019-05-26T08:51:29.925Z,975.34
2019-05-26T08:52:29.977Z,975.39
2019-05-26T08:53:29.949Z,975.36
2019-05-26T08:54:29.961Z,975.34
2019-05-26T08:55:30.005Z,975.36
2019-05-26T08:56:29.978Z,975.35
2019-05-26T08:57:29.989Z,975.40
2019-05-26T08:58:30.005Z,975.37
2019-05-26T08:59:30.018Z,975.34
2019-05-26T09:00:30.057Z,975.37
2019-05-26T09:01:30.033Z,975.33
2019-05-26T09:02:30.050Z,975.32
2019-05-26T09:03:30.178Z,975.32
2019-05-26T09:04:30.065Z,975.31
2019-05-26T09:05:30.108Z,975.28
2019-05-26T09:06:30.097Z,975.28
2019-05-26T09:07:30.098Z,975.28
2019-05-26T09:08:30.116Z,975.26
2019-05-26T09:09:30.132Z,975.28
2019-05-26T09:10:30.173Z,975.28
2019-05-26T09:11:30.862Z,975.23
2019-05-26T09:12:30.155Z,975.25
2019-05-26T09:13:30.175Z,975.20
2019-05-26T09:14:30.188Z,975.18
2019-05-26T09:15:30.226Z,975.19
2019-05-26T09:16:30.228Z,975.22
2019-05-26T09:17:30.219Z,975.27
2019-05-26T09:18:30.232Z,975.28
2019-05-26T09:19:30.244Z,975.25
2019-05-26T09:20:30.288Z,975.28
2019-05-26T09:21:30.268Z,975.28
2019-05-26T09:22:30.281Z,975.27
2019-05-26T09:23:30.295Z,975.25
2019-05-26T09:24:30.309Z,975.22
2019-05-26T09:25:30.350Z,975.21
2019-05-26T09:26:30.361Z,975.20
2019-05-26T09:27:30.339Z,975.16
2019-05-26T09:28:30.360Z,975.17
2019-05-26T09:29:30.376Z,975.11
2019-05-26T09:30:30.385Z,975.11
2019-05-26T09:31:33.493Z,975.15
2019-05-26T09:32:30.413Z,975.15
2019-05-26T09:33:30.430Z,975.17
2019-05-26T09:34:30.435Z,975.15
2019-05-26T09:35:30.458Z,975.11
2019-05-26T09:36:30.500Z,975.10
2019-05-26T09:37:30.477Z,975.07
2019-05-26T09:38:31.375Z,975.08
2019-05-26T09:39:31.375Z,975.06
2019-05-26T09:40:30.519Z,974.99
2019-05-26T09:41:30.562Z,974.97
2019-05-26T09:42:30.554Z,974.99
2019-05-26T09:43:30.568Z,974.99
2019-05-26T09:44:30.576Z,975.00
2019-05-26T09:45:30.616Z,974.98
2019-05-26T09:46:30.634Z,975.00
2019-05-26T09:47:30.622Z,974.91
2019-05-26T09:48:30.648Z,974.93
2019-05-26T09:49:30.653Z,974.92
2019-05-26T09:50:30.666Z,974.96
2019-05-26T09:51:30.788Z,974.97
2019-05-26T09:52:30.697Z,974.95
2019-05-26T09:53:30.709Z,974.90
2019-05-26T09:54:30.720Z,974.93
2019-05-26T09:55:30.735Z,974.86
2019-05-26T09:56:30.776Z,974.88
2019-05-26T09:57:30.760Z,974.96
2019-05-26T09:58:31.384Z,974.95
2019-05-26T09:59:30.790Z,974.99
2019-05-26T10:00:30.808Z,974.92
2019-05-26T10:01:31.104Z,974.83
2019-05-26T10:02:31.391Z,974.90
2019-05-26T10:03:30.849Z,974.88
2019-05-26T10:04:30.856Z,974.90
2019-05-26T10:05:30.873Z,974.89
2019-05-26T10:06:30.925Z,974.82
2019-05-26T10:07:30.903Z,974.87
2019-05-26T10:08:30.912Z,974.80
2019-05-26T10:09:30.921Z,974.79
2019-05-26T10:10:30.944Z,974.81
2019-05-26T10:11:30.981Z,974.75
2019-05-26T10:12:30.966Z,974.75
2019-05-26T10:13:32.137Z,974.72
2019-05-26T10:14:31.036Z,974.73
2019-05-26T10:15:31.886Z,974.54
2019-05-26T10:16:31.046Z,974.75
2019-05-26T10:17:31.047Z,974.74
2019-05-26T10:18:31.046Z,974.77
2019-05-26T10:19:31.056Z,974.74
2019-05-26T10:20:31.078Z,974.73
2019-05-26T10:21:31.114Z,974.74
2019-05-26T10:22:31.101Z,974.74
2019-05-26T10:23:31.170Z,974.73
2019-05-26T10:24:31.157Z,974.71
2019-05-26T10:25:31.152Z,974.72
2019-05-26T10:26:31.236Z,974.71
2019-05-26T10:27:31.190Z,974.68
2019-05-26T10:28:31.243Z,974.70
2019-05-26T10:29:31.246Z,974.53
2019-05-26T10:30:31.245Z,974.72
2019-05-26T10:31:31.264Z,974.57
2019-05-26T10:32:31.266Z,974.75
2019-05-26T10:33:31.300Z,974.72
2019-05-26T10:34:31.277Z,974.75
2019-05-26T10:35:31.391Z,974.73
2019-05-26T10:36:31.320Z,974.72
2019-05-26T10:37:31.310Z,974.71
2019-05-26T10:38:31.331Z,974.73
2019-05-26T10:39:31.340Z,974.68
2019-05-26T10:40:31.348Z,974.66
2019-05-26T10:41:31.401Z,974.64
2019-05-26T10:42:31.388Z,974.60
2019-05-26T10:43:44.408Z,974.58
2019-05-26T10:44:31.400Z,974.63
2019-05-26T10:45:34.291Z,974.59
2019-05-26T10:46:31.463Z,974.56
2019-05-26T10:47:31.446Z,974.58
2019-05-26T10:48:31.473Z,974.55
2019-05-26T10:49:31.480Z,974.50
2019-05-26T10:50:31.492Z,974.51
2019-05-26T10:51:31.536Z,974.51
2019-05-26T10:52:31.545Z,974.49
2019-05-26T10:53:31.532Z,974.52
2019-05-26T10:54:31.544Z,974.47
2019-05-26T10:55:31.678Z,974.50
2019-05-26T10:56:31.582Z,974.49
2019-05-26T10:57:31.622Z,974.40
2019-05-26T10:58:31.599Z,974.44
2019-05-26T10:59:31.626Z,974.44
2019-05-26T11:00:33.084Z,974.40
2019-05-26T11:01:31.647Z,974.45
2019-05-26T11:02:31.697Z,974.41
2019-05-26T11:03:31.715Z,974.38
2019-05-26T11:04:31.699Z,974.23
2019-05-26T11:05:31.704Z,974.44
2019-05-26T11:06:31.723Z,974.42
2019-05-26T11:07:31.753Z,974.42
2019-05-26T11:08:31.745Z,974.40
2019-05-26T11:09:31.760Z,974.38
2019-05-26T11:10:31.770Z,974.39
2019-05-26T11:11:31.786Z,974.35
2019-05-26T11:12:31.826Z,974.36
2019-05-26T11:13:31.818Z,974.34
2019-05-26T11:14:31.827Z,974.34
2019-05-26T11:15:31.922Z,974.30
2019-05-26T11:16:32.429Z,974.28
2019-05-26T11:17:31.933Z,974.26
2019-05-26T11:18:32.459Z,974.30
2019-05-26T11:19:31.910Z,974.23
2019-05-26T11:20:31.922Z,974.25
2019-05-26T11:21:32.058Z,974.27
2019-05-26T11:22:31.979Z,974.31
2019-05-26T11:23:31.989Z,974.31
2019-05-26T11:24:31.981Z,974.29
2019-05-26T11:25:31.999Z,974.33
2019-05-26T11:26:32.010Z,974.30
2019-05-26T11:27:32.057Z,974.27
2019-05-26T11:28:32.043Z,974.26
2019-05-26T11:29:32.054Z,974.29
2019-05-26T11:30:32.071Z,974.23
2019-05-26T11:31:32.090Z,974.27
2019-05-26T11:32:32.137Z,974.24
2019-05-26T11:33:32.130Z,974.27
2019-05-26T11:34:32.142Z,974.16
2019-05-26T11:35:32.919Z,974.08
2019-05-26T11:36:32.971Z,974.04
2019-05-26T11:37:32.448Z,974.04
2019-05-26T11:38:33.827Z,974.00
2019-05-26T11:39:32.223Z,974.01
2019-05-26T11:40:32.261Z,974.07
2019-05-26T11:41:32.247Z,974.02
2019-05-26T11:42:32.297Z,974.04
2019-05-26T11:43:32.922Z,974.03
2019-05-26T11:44:32.301Z,973.94
2019-05-26T11:45:32.329Z,973.99
2019-05-26T11:46:32.326Z,973.86
2019-05-26T11:47:32.375Z,973.96
2019-05-26T11:48:32.354Z,973.97
2019-05-26T11:49:32.367Z,973.95
2019-05-26T11:50:32.413Z,973.92
2019-05-26T11:51:32.401Z,973.91
2019-05-26T11:52:32.442Z,973.96
2019-05-26T11:53:32.429Z,973.90
2019-05-26T11:54:34.557Z,973.95
2019-05-26T11:55:32.454Z,973.94
2019-05-26T11:56:32.500Z,973.86
2019-05-26T11:57:36.099Z,973.83
2019-05-26T11:58:32.502Z,973.86
2019-05-26T11:59:32.512Z,973.93
2019-05-26T12:00:32.520Z,973.89
2019-05-26T12:01:32.537Z,973.94
2019-05-26T12:02:32.589Z,973.89
2019-05-26T12:03:32.564Z,973.96
2019-05-26T12:04:32.570Z,973.96
2019-05-26T12:05:32.585Z,973.91
2019-05-26T12:06:32.604Z,973.96
2019-05-26T12:07:32.638Z,973.90
2019-05-26T12:08:33.439Z,973.89
2019-05-26T12:09:32.644Z,973.89
2019-05-26T12:10:32.659Z,973.91
2019-05-26T12:11:32.676Z,973.89
2019-05-26T12:12:32.710Z,973.82
2019-05-26T12:13:32.727Z,973.84
2019-05-26T12:14:35.277Z,973.64
2019-05-26T12:15:32.728Z,973.83
2019-05-26T12:16:33.433Z,973.77
2019-05-26T12:17:32.755Z,973.73
2019-05-26T12:18:32.798Z,973.78
2019-05-26T12:19:32.782Z,973.77
2019-05-26T12:20:32.795Z,973.78
2019-05-26T12:21:32.805Z,973.75
2019-05-26T12:22:32.852Z,973.74
2019-05-26T12:23:32.862Z,973.73
2019-05-26T12:24:32.858Z,973.75
2019-05-26T12:25:32.864Z,973.73
2019-05-26T12:26:32.874Z,973.74
2019-05-26T12:27:32.886Z,973.69
2019-05-26T12:28:32.931Z,973.64